createdAt,value
2018-10-17T00:01:19.099Z,7.87
2018-10-17T00:08:22.119Z,8.17
2018-10-17T00:10:55.854Z,9.23
2018-10-17T00:13:25.118Z,9.53
2018-10-17T00:15:59.211Z,9.83
2018-10-17T00:25:36.439Z,10.83
2018-10-17T00:32:36.252Z,10.50
2018-10-17T00:35:11.964Z,9.23
2018-10-17T00:42:14.424Z,9.43
2018-10-17T00:44:43.421Z,8.90
2018-10-17T00:47:30.506Z,9.50
2018-10-17T00:50:00.071Z,9.70
2018-10-17T00:52:28.815Z,9.73
2018-10-17T00:54:59.057Z,8.83
2018-10-17T00:57:28.735Z,10.67
2018-10-17T00:59:57.949Z,9.40
2018-10-17T01:02:26.668Z,10.00
2018-10-17T01:04:56.194Z,9.90
2018-10-17T01:07:27.470Z,10.47
2018-10-17T01:09:56.711Z,8.80
2018-10-17T01:12:29.600Z,10.67
2018-10-17T01:14:58.826Z,10.27
2018-10-17T01:17:31.356Z,9.23
2018-10-17T01:20:00.927Z,8.53
2018-10-17T01:22:34.805Z,9.53
2018-10-17T01:25:03.663Z,8.90
2018-10-17T01:27:37.770Z,9.50
2018-10-17T01:30:06.871Z,9.80
2018-10-17T01:32:39.523Z,9.50
2018-10-17T01:35:09.022Z,8.97
2018-10-17T01:37:42.638Z,9.07
2018-10-17T01:40:11.393Z,9.77
2018-10-17T01:42:44.564Z,10.87
2018-10-17T01:45:13.810Z,9.77
2018-10-17T01:52:22.112Z,10.00
2018-10-17T01:54:52.300Z,9.93
2018-10-17T01:57:21.012Z,8.97
2018-10-17T01:59:53.134Z,9.83
2018-10-17T02:02:22.657Z,9.97
2018-10-17T02:04:56.002Z,8.83
2018-10-17T02:07:25.271Z,10.30
2018-10-17T02:09:59.111Z,10.07
2018-10-17T02:12:28.362Z,9.90
2018-10-17T02:15:01.932Z,9.83
2018-10-17T02:17:31.154Z,10.20
2018-10-17T02:24:34.499Z,9.90
2018-10-17T02:27:08.946Z,10.97
2018-10-17T02:29:38.180Z,11.47
2018-10-17T02:32:14.268Z,10.53
2018-10-17T02:39:18.193Z,10.93
2018-10-17T02:41:47.437Z,11.07
2018-10-17T02:53:27.273Z,11.57
2018-10-17T02:55:56.735Z,11.60
2018-10-17T02:58:25.432Z,11.03
2018-10-17T03:00:54.199Z,11.77
2018-10-17T03:03:27.192Z,12.30
2018-10-17T03:12:59.989Z,11.23
2018-10-17T03:15:31.842Z,11.77
2018-10-17T03:18:01.085Z,11.40
2018-10-17T03:20:34.100Z,12.30
2018-10-17T03:32:08.164Z,11.00
2018-10-17T03:39:12.480Z,11.13
2018-10-17T03:41:46.178Z,12.67
2018-10-17T03:48:49.308Z,10.50
2018-10-17T04:00:22.840Z,11.23
2018-10-17T04:05:30.793Z,11.27
2018-10-17T04:08:02.831Z,11.73
2018-10-17T04:10:31.521Z,10.90
2018-10-17T04:13:05.245Z,11.33
2018-10-17T04:15:34.821Z,11.87
2018-10-17T04:18:08.164Z,11.63
2018-10-17T04:20:37.111Z,12.27
2018-10-17T04:23:11.944Z,12.83
2018-10-17T04:25:40.532Z,11.70
2018-10-17T04:28:22.001Z,12.33
2018-10-17T04:30:50.717Z,12.37
2018-10-17T04:37:49.338Z,12.90
2018-10-17T04:40:19.473Z,11.70
2018-10-17T04:42:48.709Z,11.47
2018-10-17T04:49:51.357Z,12.10
2018-10-17T04:52:32.996Z,10.30
2018-10-17T04:55:01.966Z,10.97
2018-10-17T05:02:00.331Z,12.57
2018-10-17T05:04:30.458Z,12.23
2018-10-17T05:07:00.291Z,11.90
2018-10-17T05:12:07.650Z,13.30
2018-10-17T05:14:37.017Z,12.67
2018-10-17T05:17:05.810Z,13.87
2018-10-17T05:19:37.794Z,12.53
2018-10-17T05:22:06.479Z,12.33
2018-10-17T05:24:40.551Z,13.63
2018-10-17T05:27:09.598Z,12.47
2018-10-17T05:29:47.105Z,13.33
2018-10-17T05:32:16.572Z,12.70
2018-10-17T05:34:46.274Z,12.40
2018-10-17T05:37:15.072Z,12.23
2018-10-17T05:43:31.429Z,14.30
2018-10-17T05:46:00.559Z,13.23
2018-10-17T05:48:29.767Z,13.13
2018-10-17T05:51:00.001Z,14.00
2018-10-17T05:53:29.498Z,12.30
2018-10-17T05:55:58.322Z,12.90
2018-10-17T05:58:27.036Z,13.73
2018-10-17T06:01:01.430Z,14.13
2018-10-17T06:03:30.784Z,13.43
2018-10-17T06:06:05.046Z,12.87
2018-10-17T06:08:33.790Z,13.30
2018-10-17T06:11:08.220Z,13.33
2018-10-17T06:13:37.694Z,13.73
2018-10-17T06:16:12.552Z,14.20
2018-10-17T06:18:41.918Z,14.17
2018-10-17T06:21:14.089Z,13.57
2018-10-17T06:26:21.742Z,14.23
2018-10-17T06:28:50.955Z,13.53
2018-10-17T06:31:20.432Z,13.90
2018-10-17T06:33:49.683Z,14.80
2018-10-17T06:36:20.901Z,13.87
2018-10-17T06:38:49.982Z,50.03
2018-10-17T06:41:23.022Z,42.30
2018-10-17T06:43:52.293Z,28.60
2018-10-17T06:46:26.652Z,28.83
2018-10-17T06:48:55.375Z,21.87
2018-10-17T06:51:28.458Z,18.33
2018-10-17T06:53:59.161Z,15.73
2018-10-17T06:56:31.495Z,16.30
2018-10-17T06:59:01.113Z,22.40
2018-10-17T07:01:32.714Z,15.60
2018-10-17T07:04:02.526Z,15.03
2018-10-17T07:06:44.222Z,16.93
2018-10-17T07:09:13.044Z,39.70
2018-10-17T07:11:41.811Z,21.43
2018-10-17T07:14:10.838Z,30.30
2018-10-17T07:16:41.188Z,17.47
2018-10-17T07:19:10.451Z,16.13
2018-10-17T07:21:43.493Z,16.83
2018-10-17T07:24:13.101Z,15.23
2018-10-17T07:26:46.553Z,16.47
2018-10-17T07:29:16.119Z,17.33
2018-10-17T07:31:49.926Z,17.40
2018-10-17T07:34:19.663Z,16.43
2018-10-17T07:36:53.502Z,17.73
2018-10-17T07:39:22.730Z,16.97
2018-10-17T07:41:56.520Z,15.00
2018-10-17T07:44:26.182Z,12.90
2018-10-17T07:46:58.447Z,15.27
2018-10-17T07:49:27.707Z,14.60
2018-10-17T07:52:02.027Z,15.70
2018-10-17T07:54:30.739Z,16.53
2018-10-17T07:57:05.749Z,15.00
2018-10-17T07:59:34.970Z,13.93
2018-10-17T08:02:08.671Z,13.90
2018-10-17T08:04:38.199Z,13.87
2018-10-17T08:07:20.101Z,12.90
2018-10-17T08:09:49.631Z,14.67
2018-10-17T08:12:18.402Z,14.33
2018-10-17T08:14:47.615Z,14.17
2018-10-17T08:17:17.741Z,13.73
2018-10-17T08:19:46.517Z,13.73
2018-10-17T08:22:18.053Z,13.67
2018-10-17T08:24:47.318Z,13.33
2018-10-17T08:27:21.712Z,13.97
2018-10-17T08:29:51.172Z,15.27
2018-10-17T08:32:23.761Z,12.87
2018-10-17T08:34:52.487Z,13.77
2018-10-17T08:37:34.585Z,13.10
2018-10-17T08:40:04.062Z,12.63
2018-10-17T08:42:33.417Z,12.53
2018-10-17T08:45:02.683Z,12.77
2018-10-17T08:47:32.205Z,13.33
2018-10-17T08:50:01.007Z,12.87
2018-10-17T08:52:33.700Z,12.90
2018-10-17T08:55:02.432Z,12.73
2018-10-17T08:57:34.593Z,12.97
2018-10-17T09:00:04.242Z,13.50
2018-10-17T09:02:38.769Z,13.13
2018-10-17T09:05:07.556Z,12.80
2018-10-17T09:07:39.840Z,13.07
2018-10-17T09:10:08.567Z,12.90
2018-10-17T09:12:42.806Z,11.80
2018-10-17T09:15:11.526Z,12.60
2018-10-17T09:17:45.676Z,12.13
2018-10-17T09:20:15.908Z,12.40
2018-10-17T09:22:49.053Z,10.70
2018-10-17T09:25:18.811Z,10.77
2018-10-17T09:27:52.425Z,11.03
2018-10-17T09:30:21.281Z,11.43
2018-10-17T09:33:02.976Z,11.85
2018-10-17T09:35:32.217Z,10.47
2018-10-17T09:38:01.520Z,9.87
2018-10-17T09:40:30.297Z,10.77
2018-10-17T09:43:01.126Z,10.67
2018-10-17T09:45:30.109Z,9.47
2018-10-17T09:48:03.798Z,10.30
2018-10-17T09:50:33.012Z,10.43
2018-10-17T09:53:07.521Z,9.33
2018-10-17T09:55:36.261Z,9.40
2018-10-17T09:58:13.355Z,9.37
2018-10-17T10:00:48.086Z,9.37
2018-10-17T10:03:16.787Z,10.37
2018-10-17T10:05:45.995Z,8.83
2018-10-17T10:08:16.105Z,9.03
2018-10-17T10:10:46.243Z,9.43
2018-10-17T10:13:18.943Z,8.73
2018-10-17T10:15:48.437Z,9.93
2018-10-17T10:18:20.926Z,8.40
2018-10-17T10:20:50.644Z,9.13
2018-10-17T10:23:23.051Z,10.63
2018-10-17T10:25:52.444Z,9.33
2018-10-17T10:28:25.821Z,9.17
2018-10-17T10:30:55.076Z,10.20
2018-10-17T10:33:27.126Z,9.90
2018-10-17T10:35:56.360Z,9.97
2018-10-17T10:38:29.862Z,9.53
2018-10-17T10:40:59.103Z,9.70
2018-10-17T10:43:32.794Z,9.77
2018-10-17T10:46:01.812Z,10.50
2018-10-17T10:48:34.995Z,10.23
2018-10-17T10:51:03.978Z,9.70
2018-10-17T10:53:37.426Z,10.07
2018-10-17T10:56:06.709Z,10.33
2018-10-17T10:58:39.843Z,9.43
2018-10-17T11:01:08.620Z,9.70
2018-10-17T11:03:41.775Z,10.10
2018-10-17T11:06:11.502Z,9.13
2018-10-17T11:08:44.676Z,9.90
2018-10-17T11:13:48.766Z,10.20
2018-10-17T11:16:17.793Z,9.83
2018-10-17T11:18:51.953Z,9.40
2018-10-17T11:21:22.220Z,10.13
2018-10-17T11:23:52.802Z,9.33
2018-10-17T11:26:21.536Z,9.80
2018-10-17T11:28:55.444Z,9.70
2018-10-17T11:31:24.433Z,10.47
2018-10-17T11:33:58.802Z,10.03
2018-10-17T11:36:28.057Z,9.90
2018-10-17T11:39:05.280Z,9.23
2018-10-17T11:41:34.923Z,9.27
2018-10-17T11:46:42.506Z,9.80
2018-10-17T11:49:12.726Z,9.63
2018-10-17T11:51:42.301Z,10.40
2018-10-17T11:54:13.574Z,10.97
2018-10-17T11:56:42.448Z,11.23
2018-10-17T11:59:16.298Z,11.23
2018-10-17T12:01:45.455Z,12.13
2018-10-17T12:04:18.599Z,12.37
2018-10-17T12:06:47.629Z,11.90
2018-10-17T12:09:19.813Z,11.27
2018-10-17T12:11:49.466Z,11.87
2018-10-17T12:14:23.054Z,13.33
2018-10-17T12:16:52.263Z,12.23
2018-10-17T12:19:24.837Z,11.70
2018-10-17T12:21:54.121Z,11.50
2018-10-17T12:24:27.233Z,13.13
2018-10-17T12:26:56.902Z,12.57
2018-10-17T12:29:30.225Z,12.80
2018-10-17T12:32:00.438Z,13.73
2018-10-17T12:34:32.673Z,13.37
2018-10-17T12:37:01.379Z,12.77
2018-10-17T12:39:36.155Z,14.07
2018-10-17T12:42:06.217Z,12.40
2018-10-17T12:44:36.671Z,13.17
2018-10-17T12:47:05.747Z,13.40
2018-10-17T12:49:40.514Z,15.03
2018-10-17T12:52:10.102Z,14.43
2018-10-17T12:54:43.977Z,14.27
2018-10-17T12:57:12.667Z,14.63
2018-10-17T12:59:44.833Z,14.27
2018-10-17T13:02:14.085Z,14.90
2018-10-17T13:04:48.093Z,15.43
2018-10-17T13:07:16.969Z,14.53
2018-10-17T13:09:51.127Z,13.97
2018-10-17T13:12:21.357Z,14.50
2018-10-17T13:14:55.316Z,14.10
2018-10-17T13:17:24.032Z,16.10
2018-10-17T13:19:58.982Z,15.87
2018-10-17T13:22:28.187Z,15.27
2018-10-17T13:25:01.189Z,17.43
2018-10-17T13:27:30.379Z,15.23
2018-10-17T13:30:03.631Z,14.90
2018-10-17T13:32:32.772Z,15.37
2018-10-17T13:35:14.452Z,15.83
2018-10-17T13:37:43.413Z,15.43
2018-10-17T13:40:12.808Z,13.77
2018-10-17T13:42:42.009Z,12.97
2018-10-17T13:45:13.358Z,13.83
2018-10-17T13:47:42.943Z,14.17
2018-10-17T13:50:14.996Z,12.43
2018-10-17T13:52:44.268Z,12.87
2018-10-17T13:55:18.490Z,11.70
2018-10-17T13:57:48.031Z,13.00
2018-10-17T14:00:21.126Z,11.93
2018-10-17T14:02:50.138Z,11.50
2018-10-17T14:05:22.800Z,11.70
2018-10-17T14:07:51.613Z,12.30
2018-10-17T14:10:25.174Z,11.97
2018-10-17T14:12:53.943Z,12.50
2018-10-17T14:15:26.234Z,12.10
2018-10-17T14:17:55.738Z,12.03
2018-10-17T14:20:29.208Z,12.83
2018-10-17T14:22:58.391Z,11.57
2018-10-17T14:25:31.531Z,10.53
2018-10-17T14:28:00.843Z,10.83
2018-10-17T14:30:36.000Z,11.27
2018-10-17T14:33:06.204Z,10.67
2018-10-17T14:35:48.926Z,10.43
2018-10-17T14:38:19.535Z,11.47
2018-10-17T14:40:48.881Z,10.77
2018-10-17T14:43:17.777Z,13.17
2018-10-17T14:45:47.042Z,12.90
2018-10-17T14:48:15.859Z,13.67
2018-10-17T14:50:46.414Z,13.50
2018-10-17T14:53:15.873Z,13.57
2018-10-17T14:55:49.337Z,14.80
2018-10-17T14:58:18.296Z,13.17
2018-10-17T15:00:51.924Z,14.23
2018-10-17T15:03:21.230Z,14.30
2018-10-17T15:05:54.715Z,14.90
2018-10-17T15:08:23.828Z,13.93
2018-10-17T15:10:57.511Z,15.43
2018-10-17T15:13:26.383Z,15.73
2018-10-17T15:16:00.519Z,17.13
2018-10-17T15:18:30.076Z,16.53
2018-10-17T15:21:03.457Z,17.40
2018-10-17T15:23:32.625Z,15.40
2018-10-17T15:26:06.699Z,16.40
2018-10-17T15:28:37.451Z,17.33
2018-10-17T15:31:11.839Z,18.00
2018-10-17T15:33:42.118Z,17.80
2018-10-17T15:36:13.590Z,17.53
2018-10-17T15:38:43.533Z,17.03
2018-10-17T15:41:25.179Z,16.83
2018-10-17T15:43:54.448Z,16.30
2018-10-17T15:46:23.718Z,16.90
2018-10-17T15:48:52.930Z,17.93
2018-10-17T15:51:21.917Z,18.73
2018-10-17T15:53:51.132Z,18.70
2018-10-17T15:56:24.733Z,20.20
2018-10-17T15:58:53.446Z,21.30
2018-10-17T16:01:24.712Z,21.43
2018-10-17T16:03:53.421Z,18.20
2018-10-17T16:06:27.825Z,18.73
2018-10-17T16:08:58.405Z,19.47
2018-10-17T16:11:30.246Z,18.87
2018-10-17T16:13:59.007Z,19.27
2018-10-17T16:16:33.184Z,19.33
2018-10-17T16:19:03.225Z,18.83
2018-10-17T16:21:34.746Z,19.07
2018-10-17T16:24:03.510Z,20.37
2018-10-17T16:26:45.561Z,18.47
2018-10-17T16:29:15.154Z,19.70
2018-10-17T16:31:43.875Z,18.23
2018-10-17T16:34:13.518Z,18.70
2018-10-17T16:36:42.537Z,19.23
2018-10-17T16:39:12.244Z,17.60
2018-10-17T16:41:53.689Z,18.40
2018-10-17T16:44:22.961Z,19.60
2018-10-17T16:46:52.178Z,19.27
2018-10-17T16:49:22.246Z,19.17
2018-10-17T16:51:53.137Z,21.37
2018-10-17T16:54:22.914Z,22.77
2018-10-17T16:56:53.170Z,21.17
2018-10-17T16:59:22.160Z,22.23
2018-10-17T17:01:56.300Z,23.07
2018-10-17T17:04:25.768Z,23.13
2018-10-17T17:06:59.851Z,23.70
2018-10-17T17:09:29.051Z,25.50
2018-10-17T17:12:03.374Z,26.07
2018-10-17T17:14:32.925Z,25.87
2018-10-17T17:17:06.022Z,28.07
2018-10-17T17:19:35.222Z,29.40
2018-10-17T17:22:09.857Z,34.00
2018-10-17T17:24:39.087Z,32.93
2018-10-17T17:27:13.388Z,31.03
2018-10-17T17:29:42.768Z,29.50
2018-10-17T17:32:13.668Z,29.37
2018-10-17T17:34:43.964Z,30.33
2018-10-17T17:37:17.432Z,30.33
2018-10-17T17:39:47.111Z,31.13
2018-10-17T17:42:19.863Z,33.03
2018-10-17T17:44:50.033Z,33.20
2018-10-17T17:47:22.382Z,34.23
2018-10-17T17:49:52.390Z,34.47
2018-10-17T17:52:24.768Z,34.50
2018-10-17T17:54:53.476Z,34.70
2018-10-17T17:57:26.632Z,34.97
2018-10-17T17:59:56.478Z,37.30
2018-10-17T18:02:29.545Z,37.30
2018-10-17T18:04:58.279Z,38.67
2018-10-17T18:07:31.648Z,38.97
2018-10-17T18:10:01.373Z,41.47
2018-10-17T18:12:34.268Z,42.57
2018-10-17T18:15:03.320Z,42.90
2018-10-17T18:17:36.449Z,44.10
2018-10-17T18:20:05.784Z,43.80
2018-10-17T18:22:39.259Z,41.67
2018-10-17T18:25:08.784Z,41.30
2018-10-17T18:27:44.010Z,39.83
2018-10-17T18:30:14.392Z,40.40
2018-10-17T18:32:45.117Z,38.23
2018-10-17T18:35:13.813Z,39.07
2018-10-17T18:37:48.714Z,39.63
2018-10-17T18:40:18.019Z,38.87
2018-10-17T18:42:51.311Z,40.93
2018-10-17T18:45:20.362Z,37.50
2018-10-17T18:47:54.721Z,38.50
2018-10-17T18:50:23.377Z,39.83
2018-10-17T18:52:57.579Z,40.20
2018-10-17T18:55:26.294Z,41.27
2018-10-17T18:58:00.749Z,41.97
2018-10-17T19:00:29.896Z,41.80
2018-10-17T19:03:02.900Z,41.47
2018-10-17T19:05:32.129Z,41.03
2018-10-17T19:08:06.269Z,40.20
2018-10-17T19:10:36.216Z,40.80
2018-10-17T19:13:11.502Z,42.77
2018-10-17T19:15:40.662Z,41.40
2018-10-17T19:18:22.657Z,42.03
2018-10-17T19:20:51.908Z,40.50
2018-10-17T19:23:20.928Z,42.33
2018-10-17T19:25:50.142Z,44.90
2018-10-17T19:28:18.836Z,43.33
2018-10-17T19:30:48.960Z,42.97
2018-10-17T19:33:19.553Z,43.33
2018-10-17T19:35:48.262Z,40.50
2018-10-17T19:38:22.945Z,40.57
2018-10-17T19:40:52.149Z,41.53
2018-10-17T19:43:35.772Z,42.57
2018-10-17T19:46:06.466Z,40.03
2018-10-17T19:48:35.856Z,41.47
2018-10-17T19:51:04.796Z,40.70
2018-10-17T19:53:34.414Z,38.00
2018-10-17T19:56:03.370Z,38.07
2018-10-17T19:58:32.381Z,40.40
2018-10-17T20:01:01.521Z,38.90
2018-10-17T20:03:36.884Z,38.17
2018-10-17T20:06:05.797Z,38.57
2018-10-17T20:08:38.437Z,37.50
2018-10-17T20:11:08.681Z,37.80
2018-10-17T20:13:42.433Z,38.53
2018-10-17T20:18:50.888Z,38.87
2018-10-17T20:21:20.528Z,37.00
2018-10-17T20:23:49.588Z,38.03
2018-10-17T20:26:18.879Z,36.63
2018-10-17T20:28:48.377Z,38.07
2018-10-17T20:31:17.348Z,36.80
2018-10-17T20:33:49.833Z,36.63
2018-10-17T20:36:19.013Z,36.43
2018-10-17T20:38:53.382Z,35.43
2018-10-17T20:41:22.063Z,37.07
2018-10-17T20:43:55.764Z,36.03
2018-10-17T20:46:25.394Z,36.47
2018-10-17T20:48:58.510Z,35.77
2018-10-17T20:51:27.697Z,37.00
2018-10-17T20:54:02.196Z,37.50
2018-10-17T20:56:30.898Z,35.63
2018-10-17T20:59:05.701Z,36.37
2018-10-17T21:01:34.391Z,35.80
2018-10-17T21:04:09.144Z,34.43
2018-10-17T21:06:38.357Z,36.23
2018-10-17T21:09:13.333Z,35.70
2018-10-17T21:11:42.676Z,37.33
2018-10-17T21:14:16.504Z,35.30
2018-10-17T21:16:45.853Z,35.40
2018-10-17T21:19:18.378Z,34.93
2018-10-17T21:21:47.845Z,34.37
2018-10-17T21:24:19.442Z,34.80
2018-10-17T21:26:48.170Z,36.77
2018-10-17T21:29:29.596Z,36.80
2018-10-17T21:31:58.857Z,37.60
2018-10-17T21:34:27.838Z,37.73
2018-10-17T21:36:56.521Z,34.60
2018-10-17T21:39:27.309Z,36.60
2018-10-17T21:41:57.163Z,36.37
2018-10-17T21:44:29.404Z,34.67
2018-10-17T21:46:58.103Z,33.37
2018-10-17T21:49:40.294Z,37.40
2018-10-17T21:52:10.185Z,35.63
2018-10-17T21:54:39.640Z,35.20
2018-10-17T21:57:08.893Z,34.13
2018-10-17T21:59:38.121Z,35.40
2018-10-17T22:02:06.872Z,35.43
2018-10-17T22:04:39.041Z,36.50
2018-10-17T22:07:08.008Z,36.30
2018-10-17T22:09:44.821Z,35.47
2018-10-17T22:12:14.059Z,36.80
2018-10-17T22:14:44.993Z,37.93
2018-10-17T22:17:13.700Z,38.97
2018-10-17T22:19:48.901Z,37.83
2018-10-17T22:22:17.933Z,37.37
2018-10-17T22:24:52.226Z,38.40
2018-10-17T22:27:21.853Z,37.57
2018-10-17T22:29:53.571Z,36.23
2018-10-17T22:32:22.811Z,37.13
2018-10-17T22:34:57.372Z,37.90
2018-10-17T22:37:26.546Z,37.63
2018-10-17T22:40:07.384Z,39.87
2018-10-17T22:42:36.368Z,38.10
2018-10-17T22:45:06.263Z,38.20
2018-10-17T22:47:35.429Z,39.80
2018-10-17T22:50:08.166Z,41.03
2018-10-17T22:52:37.133Z,37.13
2018-10-17T22:55:10.580Z,41.60
2018-10-17T22:57:39.783Z,40.50
2018-10-17T23:00:12.946Z,40.00
2018-10-17T23:02:42.143Z,39.30
2018-10-17T23:05:16.361Z,41.17
2018-10-17T23:07:45.907Z,38.90
2018-10-17T23:10:16.456Z,38.37
2018-10-17T23:12:45.144Z,39.97
2018-10-17T23:15:19.242Z,40.90
2018-10-17T23:17:47.927Z,41.77
2018-10-17T23:20:24.131Z,41.77
2018-10-17T23:22:53.313Z,42.37
2018-10-17T23:25:25.491Z,41.37
2018-10-17T23:27:54.974Z,41.47
2018-10-17T23:30:27.292Z,40.97
2018-10-17T23:32:56.495Z,42.70
2018-10-17T23:35:28.454Z,41.13
2018-10-17T23:37:58.052Z,41.43
2018-10-17T23:40:32.613Z,41.60
2018-10-17T23:43:02.309Z,39.73
2018-10-17T23:45:34.812Z,42.63
2018-10-17T23:48:04.017Z,41.20
2018-10-17T23:50:36.937Z,41.83
2018-10-17T23:53:05.665Z,40.50
2018-10-17T23:55:47.436Z,41.97
2018-10-17T23:58:16.905Z,42.27
